sensor_id;sensor_type;location;lat;lon;timestamp;P1;durP1;ratioP1;P2;durP2;ratioP2
73557;SDS011;61829;53.286;10.434;2022-08-30T00:00:06;3.95;;;1.88;;
73557;SDS011;61829;53.286;10.434;2022-08-30T00:03:00;3.03;;;1.70;;
73557;SDS011;61829;53.286;10.434;2022-08-30T00:05:27;3.45;;;1.35;;
73557;SDS011;61829;53.286;10.434;2022-08-30T00:07:56;3.25;;;1.50;;
73557;SDS011;61829;53.286;10.434;2022-08-30T00:10:23;3.53;;;1.52;;
73557;SDS011;61829;53.286;10.434;2022-08-30T00:12:50;2.92;;;1.48;;
73557;SDS011;61829;53.286;10.434;2022-08-30T00:15:17;3.10;;;1.55;;
73557;SDS011;61829;53.286;10.434;2022-08-30T00:20:11;4.10;;;1.65;;
73557;SDS011;61829;53.286;10.434;2022-08-30T00:22:39;3.80;;;1.65;;
73557;SDS011;61829;53.286;10.434;2022-08-30T00:25:05;3.67;;;1.80;;
73557;SDS011;61829;53.286;10.434;2022-08-30T00:27:32;3.70;;;1.55;;
73557;SDS011;61829;53.286;10.434;2022-08-30T00:29:58;4.65;;;1.50;;
73557;SDS011;61829;53.286;10.434;2022-08-30T00:32:26;4.03;;;1.60;;
73557;SDS011;61829;53.286;10.434;2022-08-30T00:34:52;4.85;;;1.73;;
73557;SDS011;61829;53.286;10.434;2022-08-30T00:37:19;3.13;;;1.50;;
73557;SDS011;61829;53.286;10.434;2022-08-30T00:39:47;3.95;;;1.90;;
73557;SDS011;61829;53.286;10.434;2022-08-30T00:42:13;3.05;;;1.60;;
73557;SDS011;61829;53.286;10.434;2022-08-30T00:44:40;4.55;;;2.00;;
73557;SDS011;61829;53.286;10.434;2022-08-30T00:47:07;3.88;;;1.80;;
73557;SDS011;61829;53.286;10.434;2022-08-30T00:49:35;2.72;;;1.35;;
73557;SDS011;61829;53.286;10.434;2022-08-30T00:52:16;3.78;;;1.60;;
73557;SDS011;61829;53.286;10.434;2022-08-30T00:54:44;3.97;;;1.60;;
73557;SDS011;61829;53.286;10.434;2022-08-30T00:57:11;5.18;;;1.70;;
73557;SDS011;61829;53.286;10.434;2022-08-30T00:59:40;3.65;;;1.70;;
73557;SDS011;61829;53.286;10.434;2022-08-30T01:02:09;2.97;;;1.60;;
73557;SDS011;61829;53.286;10.434;2022-08-30T01:07:02;4.18;;;1.48;;
73557;SDS011;61829;53.286;10.434;2022-08-30T01:09:28;3.00;;;1.60;;
73557;SDS011;61829;53.286;10.434;2022-08-30T01:11:54;4.28;;;1.88;;
73557;SDS011;61829;53.286;10.434;2022-08-30T01:14:21;4.07;;;1.60;;
73557;SDS011;61829;53.286;10.434;2022-08-30T01:16:47;3.03;;;1.80;;
73557;SDS011;61829;53.286;10.434;2022-08-30T01:19:37;2.85;;;1.52;;
73557;SDS011;61829;53.286;10.434;2022-08-30T01:22:10;6.22;;;1.80;;
73557;SDS011;61829;53.286;10.434;2022-08-30T01:24:59;2.30;;;1.50;;
73557;SDS011;61829;53.286;10.434;2022-08-30T01:27:26;4.70;;;1.80;;
73557;SDS011;61829;53.286;10.434;2022-08-30T01:29:54;2.65;;;1.60;;
73557;SDS011;61829;53.286;10.434;2022-08-30T01:32:24;4.88;;;1.60;;
73557;SDS011;61829;53.286;10.434;2022-08-30T01:34:54;5.53;;;1.73;;
73557;SDS011;61829;53.286;10.434;2022-08-30T01:37:22;3.42;;;1.58;;
73557;SDS011;61829;53.286;10.434;2022-08-30T01:39:51;3.42;;;1.50;;
73557;SDS011;61829;53.286;10.434;2022-08-30T01:42:18;3.42;;;1.50;;
73557;SDS011;61829;53.286;10.434;2022-08-30T01:44:45;4.70;;;1.73;;
73557;SDS011;61829;53.286;10.434;2022-08-30T01:47:12;5.15;;;1.52;;
73557;SDS011;61829;53.286;10.434;2022-08-30T01:49:38;3.53;;;1.35;;
73557;SDS011;61829;53.286;10.434;2022-08-30T01:52:06;5.38;;;1.42;;
73557;SDS011;61829;53.286;10.434;2022-08-30T01:54:33;3.22;;;1.30;;
73557;SDS011;61829;53.286;10.434;2022-08-30T01:57:02;2.42;;;1.23;;
73557;SDS011;61829;53.286;10.434;2022-08-30T01:59:28;2.70;;;1.40;;
73557;SDS011;61829;53.286;10.434;2022-08-30T02:01:54;5.05;;;1.50;;
73557;SDS011;61829;53.286;10.434;2022-08-30T02:04:20;2.00;;;1.25;;
73557;SDS011;61829;53.286;10.434;2022-08-30T02:06:46;3.13;;;1.58;;
73557;SDS011;61829;53.286;10.434;2022-08-30T02:09:13;3.85;;;1.50;;
73557;SDS011;61829;53.286;10.434;2022-08-30T02:11:39;2.75;;;1.60;;
73557;SDS011;61829;53.286;10.434;2022-08-30T02:14:05;2.88;;;1.60;;
73557;SDS011;61829;53.286;10.434;2022-08-30T02:16:32;2.80;;;1.55;;
73557;SDS011;61829;53.286;10.434;2022-08-30T02:18:58;2.38;;;1.30;;
73557;SDS011;61829;53.286;10.434;2022-08-30T02:21:26;3.20;;;1.80;;
73557;SDS011;61829;53.286;10.434;2022-08-30T02:24:02;3.15;;;1.48;;
73557;SDS011;61829;53.286;10.434;2022-08-30T02:26:29;3.45;;;1.60;;
73557;SDS011;61829;53.286;10.434;2022-08-30T02:28:56;3.28;;;1.90;;
73557;SDS011;61829;53.286;10.434;2022-08-30T02:31:32;3.90;;;1.80;;
73557;SDS011;61829;53.286;10.434;2022-08-30T02:33:58;4.63;;;1.75;;
73557;SDS011;61829;53.286;10.434;2022-08-30T02:36:24;4.05;;;1.70;;
73557;SDS011;61829;53.286;10.434;2022-08-30T02:38:51;3.70;;;1.90;;
73557;SDS011;61829;53.286;10.434;2022-08-30T02:41:17;4.07;;;1.90;;
73557;SDS011;61829;53.286;10.434;2022-08-30T02:43:44;2.65;;;1.70;;
73557;SDS011;61829;53.286;10.434;2022-08-30T02:46:11;3.00;;;1.70;;
73557;SDS011;61829;53.286;10.434;2022-08-30T02:48:37;4.43;;;1.80;;
73557;SDS011;61829;53.286;10.434;2022-08-30T02:51:04;3.53;;;1.55;;
73557;SDS011;61829;53.286;10.434;2022-08-30T02:53:32;4.75;;;1.98;;
73557;SDS011;61829;53.286;10.434;2022-08-30T02:55:58;4.25;;;1.75;;
73557;SDS011;61829;53.286;10.434;2022-08-30T02:58:24;4.63;;;1.95;;
73557;SDS011;61829;53.286;10.434;2022-08-30T03:00:51;4.30;;;1.67;;
73557;SDS011;61829;53.286;10.434;2022-08-30T03:03:17;3.60;;;1.92;;
73557;SDS011;61829;53.286;10.434;2022-08-30T03:05:43;5.70;;;1.90;;
73557;SDS011;61829;53.286;10.434;2022-08-30T03:08:09;4.45;;;1.85;;
73557;SDS011;61829;53.286;10.434;2022-08-30T03:10:35;3.63;;;1.75;;
73557;SDS011;61829;53.286;10.434;2022-08-30T03:13:04;6.22;;;2.10;;
73557;SDS011;61829;53.286;10.434;2022-08-30T03:15:32;3.58;;;1.73;;
73557;SDS011;61829;53.286;10.434;2022-08-30T03:17:59;4.57;;;2.65;;
73557;SDS011;61829;53.286;10.434;2022-08-30T03:22:53;4.70;;;1.75;;
73557;SDS011;61829;53.286;10.434;2022-08-30T03:25:19;7.68;;;2.20;;
73557;SDS011;61829;53.286;10.434;2022-08-30T03:27:46;2.72;;;1.70;;
73557;SDS011;61829;53.286;10.434;2022-08-30T03:30:15;2.92;;;1.83;;
73557;SDS011;61829;53.286;10.434;2022-08-30T03:32:42;4.45;;;2.00;;
73557;SDS011;61829;53.286;10.434;2022-08-30T03:35:09;2.72;;;1.60;;
73557;SDS011;61829;53.286;10.434;2022-08-30T03:37:35;3.40;;;1.98;;
73557;SDS011;61829;53.286;10.434;2022-08-30T03:40:03;4.18;;;2.00;;
73557;SDS011;61829;53.286;10.434;2022-08-30T03:42:31;4.75;;;2.00;;
73557;SDS011;61829;53.286;10.434;2022-08-30T03:44:57;5.03;;;2.17;;
73557;SDS011;61829;53.286;10.434;2022-08-30T03:47:23;4.68;;;1.98;;
73557;SDS011;61829;53.286;10.434;2022-08-30T03:49:49;5.90;;;1.70;;
73557;SDS011;61829;53.286;10.434;2022-08-30T03:52:15;4.15;;;2.00;;
73557;SDS011;61829;53.286;10.434;2022-08-30T03:54:41;3.80;;;1.73;;
73557;SDS011;61829;53.286;10.434;2022-08-30T03:57:07;6.03;;;2.08;;
73557;SDS011;61829;53.286;10.434;2022-08-30T03:59:33;5.57;;;2.08;;
73557;SDS011;61829;53.286;10.434;2022-08-30T04:01:59;8.15;;;2.25;;
73557;SDS011;61829;53.286;10.434;2022-08-30T04:04:26;7.95;;;1.88;;
73557;SDS011;61829;53.286;10.434;2022-08-30T04:06:52;7.30;;;2.30;;
73557;SDS011;61829;53.286;10.434;2022-08-30T04:09:18;6.25;;;1.98;;
73557;SDS011;61829;53.286;10.434;2022-08-30T04:11:44;4.15;;;1.73;;
73557;SDS011;61829;53.286;10.434;2022-08-30T04:14:10;3.65;;;1.80;;
73557;SDS011;61829;53.286;10.434;2022-08-30T04:16:36;2.83;;;1.45;;
73557;SDS011;61829;53.286;10.434;2022-08-30T04:23:02;4.82;;;1.88;;
73557;SDS011;61829;53.286;10.434;2022-08-30T04:25:32;3.25;;;1.70;;
73557;SDS011;61829;53.286;10.434;2022-08-30T04:28:02;4.40;;;1.90;;
73557;SDS011;61829;53.286;10.434;2022-08-30T04:30:30;4.15;;;1.85;;
73557;SDS011;61829;53.286;10.434;2022-08-30T04:35:23;4.90;;;1.73;;
73557;SDS011;61829;53.286;10.434;2022-08-30T04:37:49;3.63;;;1.70;;
73557;SDS011;61829;53.286;10.434;2022-08-30T04:40:15;3.38;;;1.85;;
73557;SDS011;61829;53.286;10.434;2022-08-30T04:42:41;4.32;;;1.92;;
73557;SDS011;61829;53.286;10.434;2022-08-30T04:45:09;4.57;;;1.83;;
73557;SDS011;61829;53.286;10.434;2022-08-30T04:47:40;7.43;;;2.25;;
73557;SDS011;61829;53.286;10.434;2022-08-30T04:50:07;2.85;;;1.80;;
73557;SDS011;61829;53.286;10.434;2022-08-30T04:52:35;4.63;;;1.90;;
73557;SDS011;61829;53.286;10.434;2022-08-30T04:55:02;3.13;;;1.85;;
73557;SDS011;61829;53.286;10.434;2022-08-30T04:57:28;3.58;;;1.80;;
73557;SDS011;61829;53.286;10.434;2022-08-30T04:59:54;3.75;;;1.75;;
73557;SDS011;61829;53.286;10.434;2022-08-30T05:02:21;4.07;;;2.08;;
73557;SDS011;61829;53.286;10.434;2022-08-30T05:04:47;3.50;;;1.80;;
73557;SDS011;61829;53.286;10.434;2022-08-30T05:07:33;2.70;;;1.90;;
73557;SDS011;61829;53.286;10.434;2022-08-30T05:09:59;4.35;;;1.85;;
73557;SDS011;61829;53.286;10.434;2022-08-30T05:12:25;5.18;;;2.25;;
73557;SDS011;61829;53.286;10.434;2022-08-30T05:14:52;3.95;;;1.90;;
73557;SDS011;61829;53.286;10.434;2022-08-30T05:17:18;4.75;;;2.40;;
73557;SDS011;61829;53.286;10.434;2022-08-30T05:19:44;2.90;;;2.00;;
73557;SDS011;61829;53.286;10.434;2022-08-30T05:22:10;3.92;;;2.00;;
73557;SDS011;61829;53.286;10.434;2022-08-30T05:24:36;6.78;;;2.00;;
73557;SDS011;61829;53.286;10.434;2022-08-30T05:27:02;4.53;;;1.80;;
73557;SDS011;61829;53.286;10.434;2022-08-30T05:29:29;5.78;;;1.92;;
73557;SDS011;61829;53.286;10.434;2022-08-30T05:31:55;3.92;;;1.75;;
73557;SDS011;61829;53.286;10.434;2022-08-30T05:34:21;2.40;;;1.60;;
73557;SDS011;61829;53.286;10.434;2022-08-30T05:36:50;2.92;;;2.00;;
73557;SDS011;61829;53.286;10.434;2022-08-30T05:39:17;4.18;;;1.85;;
73557;SDS011;61829;53.286;10.434;2022-08-30T05:41:43;5.05;;;1.95;;
73557;SDS011;61829;53.286;10.434;2022-08-30T05:44:09;3.20;;;2.00;;
73557;SDS011;61829;53.286;10.434;2022-08-30T05:46:36;4.78;;;2.00;;
73557;SDS011;61829;53.286;10.434;2022-08-30T05:49:04;4.70;;;1.80;;
73557;SDS011;61829;53.286;10.434;2022-08-30T05:51:33;4.57;;;2.05;;
73557;SDS011;61829;53.286;10.434;2022-08-30T05:53:59;4.53;;;1.75;;
73557;SDS011;61829;53.286;10.434;2022-08-30T05:56:28;5.03;;;1.80;;
73557;SDS011;61829;53.286;10.434;2022-08-30T05:58:56;5.25;;;2.28;;
73557;SDS011;61829;53.286;10.434;2022-08-30T06:01:24;8.23;;;2.05;;
73557;SDS011;61829;53.286;10.434;2022-08-30T06:03:51;3.85;;;2.00;;
73557;SDS011;61829;53.286;10.434;2022-08-30T06:06:18;4.22;;;2.08;;
73557;SDS011;61829;53.286;10.434;2022-08-30T06:08:44;3.10;;;2.03;;
73557;SDS011;61829;53.286;10.434;2022-08-30T06:11:12;6.32;;;2.38;;
73557;SDS011;61829;53.286;10.434;2022-08-30T06:13:44;2.90;;;1.90;;
73557;SDS011;61829;53.286;10.434;2022-08-30T06:16:12;4.10;;;2.00;;
73557;SDS011;61829;53.286;10.434;2022-08-30T06:18:39;4.28;;;2.00;;
73557;SDS011;61829;53.286;10.434;2022-08-30T06:21:05;3.92;;;2.22;;
73557;SDS011;61829;53.286;10.434;2022-08-30T06:23:31;5.32;;;2.00;;
73557;SDS011;61829;53.286;10.434;2022-08-30T06:26:04;2.38;;;1.70;;
73557;SDS011;61829;53.286;10.434;2022-08-30T06:28:32;5.32;;;2.17;;
73557;SDS011;61829;53.286;10.434;2022-08-30T06:30:59;7.10;;;2.35;;
73557;SDS011;61829;53.286;10.434;2022-08-30T06:33:25;3.67;;;1.83;;
73557;SDS011;61829;53.286;10.434;2022-08-30T06:35:51;5.65;;;1.75;;
73557;SDS011;61829;53.286;10.434;2022-08-30T06:38:17;5.97;;;2.42;;
73557;SDS011;61829;53.286;10.434;2022-08-30T06:40:45;3.50;;;1.60;;
73557;SDS011;61829;53.286;10.434;2022-08-30T06:43:11;5.15;;;2.00;;
73557;SDS011;61829;53.286;10.434;2022-08-30T06:45:37;6.10;;;2.00;;
73557;SDS011;61829;53.286;10.434;2022-08-30T06:48:03;3.70;;;1.73;;
73557;SDS011;61829;53.286;10.434;2022-08-30T06:50:31;4.45;;;1.70;;
73557;SDS011;61829;53.286;10.434;2022-08-30T06:53:09;5.38;;;1.73;;
73557;SDS011;61829;53.286;10.434;2022-08-30T06:56:00;5.50;;;1.75;;
73557;SDS011;61829;53.286;10.434;2022-08-30T06:58:38;2.67;;;1.73;;
73557;SDS011;61829;53.286;10.434;2022-08-30T07:01:19;4.03;;;1.85;;
73557;SDS011;61829;53.286;10.434;2022-08-30T07:03:49;4.22;;;1.77;;
73557;SDS011;61829;53.286;10.434;2022-08-30T07:06:17;3.22;;;1.80;;
73557;SDS011;61829;53.286;10.434;2022-08-30T07:11:09;4.25;;;1.42;;
73557;SDS011;61829;53.286;10.434;2022-08-30T07:13:36;3.65;;;1.77;;
73557;SDS011;61829;53.286;10.434;2022-08-30T07:16:09;2.65;;;1.73;;
73557;SDS011;61829;53.286;10.434;2022-08-30T07:18:36;5.30;;;2.00;;
73557;SDS011;61829;53.286;10.434;2022-08-30T07:21:21;3.75;;;2.17;;
73557;SDS011;61829;53.286;10.434;2022-08-30T07:23:53;3.67;;;1.92;;
73557;SDS011;61829;53.286;10.434;2022-08-30T07:26:23;4.20;;;2.00;;
73557;SDS011;61829;53.286;10.434;2022-08-30T07:28:52;5.72;;;1.90;;
73557;SDS011;61829;53.286;10.434;2022-08-30T07:31:18;2.78;;;1.73;;
73557;SDS011;61829;53.286;10.434;2022-08-30T07:33:45;4.55;;;1.75;;
73557;SDS011;61829;53.286;10.434;2022-08-30T07:36:12;3.25;;;1.90;;
73557;SDS011;61829;53.286;10.434;2022-08-30T07:38:39;5.68;;;2.00;;
73557;SDS011;61829;53.286;10.434;2022-08-30T07:41:06;2.90;;;1.52;;
73557;SDS011;61829;53.286;10.434;2022-08-30T07:43:32;4.43;;;1.80;;
73557;SDS011;61829;53.286;10.434;2022-08-30T07:46:04;4.10;;;1.55;;
73557;SDS011;61829;53.286;10.434;2022-08-30T07:48:32;2.30;;;1.50;;
73557;SDS011;61829;53.286;10.434;2022-08-30T07:50:59;4.13;;;1.80;;
73557;SDS011;61829;53.286;10.434;2022-08-30T07:53:26;3.83;;;1.70;;
73557;SDS011;61829;53.286;10.434;2022-08-30T07:55:52;3.13;;;1.42;;
73557;SDS011;61829;53.286;10.434;2022-08-30T07:58:18;3.20;;;1.73;;
73557;SDS011;61829;53.286;10.434;2022-08-30T08:00:45;4.68;;;1.60;;
73557;SDS011;61829;53.286;10.434;2022-08-30T08:03:11;4.35;;;1.55;;
73557;SDS011;61829;53.286;10.434;2022-08-30T08:05:38;3.70;;;1.45;;
73557;SDS011;61829;53.286;10.434;2022-08-30T08:08:06;3.00;;;1.42;;
73557;SDS011;61829;53.286;10.434;2022-08-30T08:10:34;3.55;;;1.23;;
73557;SDS011;61829;53.286;10.434;2022-08-30T08:13:01;2.35;;;1.30;;
73557;SDS011;61829;53.286;10.434;2022-08-30T08:15:27;3.00;;;1.17;;
73557;SDS011;61829;53.286;10.434;2022-08-30T08:17:54;1.83;;;1.17;;
73557;SDS011;61829;53.286;10.434;2022-08-30T08:20:20;2.38;;;1.00;;
73557;SDS011;61829;53.286;10.434;2022-08-30T08:22:46;2.22;;;1.10;;
73557;SDS011;61829;53.286;10.434;2022-08-30T08:25:13;1.90;;;0.93;;
73557;SDS011;61829;53.286;10.434;2022-08-30T08:27:40;2.10;;;1.17;;
73557;SDS011;61829;53.286;10.434;2022-08-30T08:30:07;1.92;;;1.13;;
73557;SDS011;61829;53.286;10.434;2022-08-30T08:32:34;3.80;;;2.08;;
73557;SDS011;61829;53.286;10.434;2022-08-30T08:35:01;2.47;;;1.20;;
73557;SDS011;61829;53.286;10.434;2022-08-30T08:37:27;1.73;;;1.05;;
73557;SDS011;61829;53.286;10.434;2022-08-30T08:39:54;0.85;;;0.85;;
73557;SDS011;61829;53.286;10.434;2022-08-30T08:47:38;2.83;;;1.00;;
73557;SDS011;61829;53.286;10.434;2022-08-30T08:50:14;1.50;;;1.10;;
73557;SDS011;61829;53.286;10.434;2022-08-30T08:55:46;1.77;;;1.13;;
73557;SDS011;61829;53.286;10.434;2022-08-30T08:58:24;2.90;;;1.08;;
73557;SDS011;61829;53.286;10.434;2022-08-30T09:00:57;1.23;;;1.00;;
73557;SDS011;61829;53.286;10.434;2022-08-30T09:03:24;3.03;;;1.20;;
73557;SDS011;61829;53.286;10.434;2022-08-30T09:05:52;2.25;;;1.20;;
73557;SDS011;61829;53.286;10.434;2022-08-30T09:08:20;2.72;;;1.00;;
73557;SDS011;61829;53.286;10.434;2022-08-30T09:10:59;5.35;;;1.15;;
73557;SDS011;61829;53.286;10.434;2022-08-30T09:13:30;1.13;;;0.90;;
73557;SDS011;61829;53.286;10.434;2022-08-30T09:15:56;1.17;;;0.95;;
73557;SDS011;61829;53.286;10.434;2022-08-30T09:21:25;1.73;;;1.00;;
73557;SDS011;61829;53.286;10.434;2022-08-30T09:23:57;1.30;;;0.90;;
73557;SDS011;61829;53.286;10.434;2022-08-30T09:26:27;1.65;;;0.90;;
73557;SDS011;61829;53.286;10.434;2022-08-30T09:28:58;3.28;;;1.05;;
73557;SDS011;61829;53.286;10.434;2022-08-30T09:31:26;1.00;;;0.90;;
73557;SDS011;61829;53.286;10.434;2022-08-30T09:34:05;1.23;;;0.90;;
73557;SDS011;61829;53.286;10.434;2022-08-30T09:36:37;1.98;;;0.90;;
73557;SDS011;61829;53.286;10.434;2022-08-30T09:39:05;3.83;;;1.10;;
73557;SDS011;61829;53.286;10.434;2022-08-30T09:41:43;1.90;;;0.80;;
73557;SDS011;61829;53.286;10.434;2022-08-30T09:44:18;0.90;;;0.90;;
73557;SDS011;61829;53.286;10.434;2022-08-30T09:46:50;5.15;;;1.23;;
73557;SDS011;61829;53.286;10.434;2022-08-30T10:00:37;1.15;;;0.90;;
73557;SDS011;61829;53.286;10.434;2022-08-30T10:03:19;1.52;;;0.85;;
73557;SDS011;61829;53.286;10.434;2022-08-30T10:22:18;2.30;;;0.90;;
73557;SDS011;61829;53.286;10.434;2022-08-30T10:24:58;2.30;;;0.80;;
73557;SDS011;61829;53.286;10.434;2022-08-30T10:30:19;1.15;;;0.82;;
73557;SDS011;61829;53.286;10.434;2022-08-30T10:33:24;1.23;;;0.80;;
73557;SDS011;61829;53.286;10.434;2022-08-30T10:35:43;1.58;;;0.90;;
73557;SDS011;61829;53.286;10.434;2022-08-30T10:49:03;1.02;;;0.70;;
73557;SDS011;61829;53.286;10.434;2022-08-30T10:56:49;1.95;;;0.90;;
73557;SDS011;61829;53.286;10.434;2022-08-30T10:59:17;2.30;;;0.98;;
73557;SDS011;61829;53.286;10.434;2022-08-30T11:07:57;0.90;;;0.80;;
73557;SDS011;61829;53.286;10.434;2022-08-30T11:13:39;1.90;;;0.73;;
73557;SDS011;61829;53.286;10.434;2022-08-30T11:16:10;1.20;;;0.80;;
73557;SDS011;61829;53.286;10.434;2022-08-30T11:31:59;4.10;;;1.00;;
73557;SDS011;61829;53.286;10.434;2022-08-30T11:40:01;2.47;;;0.80;;
73557;SDS011;61829;53.286;10.434;2022-08-30T11:47:57;1.17;;;0.90;;
73557;SDS011;61829;53.286;10.434;2022-08-30T11:50:32;1.80;;;0.85;;
73557;SDS011;61829;53.286;10.434;2022-08-30T11:53:05;1.27;;;0.88;;
73557;SDS011;61829;53.286;10.434;2022-08-30T11:55:48;2.20;;;0.95;;
73557;SDS011;61829;53.286;10.434;2022-08-30T12:06:46;1.85;;;0.88;;
73557;SDS011;61829;53.286;10.434;2022-08-30T12:17:47;2.40;;;0.98;;
73557;SDS011;61829;53.286;10.434;2022-08-30T12:20:42;2.05;;;0.93;;
73557;SDS011;61829;53.286;10.434;2022-08-30T12:23:32;1.13;;;0.80;;
73557;SDS011;61829;53.286;10.434;2022-08-30T12:26:16;2.45;;;0.80;;
73557;SDS011;61829;53.286;10.434;2022-08-30T12:31:39;1.95;;;1.00;;
73557;SDS011;61829;53.286;10.434;2022-08-30T12:34:14;2.67;;;1.05;;
73557;SDS011;61829;53.286;10.434;2022-08-30T12:39:22;2.00;;;1.20;;
73557;SDS011;61829;53.286;10.434;2022-08-30T12:41:52;2.10;;;1.00;;
73557;SDS011;61829;53.286;10.434;2022-08-30T12:44:26;1.55;;;0.90;;
73557;SDS011;61829;53.286;10.434;2022-08-30T12:47:02;1.50;;;0.85;;
73557;SDS011;61829;53.286;10.434;2022-08-30T12:49:31;1.98;;;1.08;;
73557;SDS011;61829;53.286;10.434;2022-08-30T12:52:20;0.80;;;0.80;;
73557;SDS011;61829;53.286;10.434;2022-08-30T12:55:04;3.28;;;1.10;;
73557;SDS011;61829;53.286;10.434;2022-08-30T13:00:25;1.33;;;0.90;;
73557;SDS011;61829;53.286;10.434;2022-08-30T13:03:06;2.55;;;1.00;;
73557;SDS011;61829;53.286;10.434;2022-08-30T13:06:04;2.63;;;1.10;;
73557;SDS011;61829;53.286;10.434;2022-08-30T13:13:46;3.55;;;1.20;;
73557;SDS011;61829;53.286;10.434;2022-08-30T13:19:25;1.30;;;0.98;;
73557;SDS011;61829;53.286;10.434;2022-08-30T13:21:57;2.30;;;1.00;;
73557;SDS011;61829;53.286;10.434;2022-08-30T13:24:24;3.72;;;1.35;;
73557;SDS011;61829;53.286;10.434;2022-08-30T13:29:19;1.63;;;1.05;;
73557;SDS011;61829;53.286;10.434;2022-08-30T13:31:50;3.05;;;1.10;;
73557;SDS011;61829;53.286;10.434;2022-08-30T13:34:15;1.80;;;1.20;;
73557;SDS011;61829;53.286;10.434;2022-08-30T13:36:49;2.45;;;1.10;;
73557;SDS011;61829;53.286;10.434;2022-08-30T13:39:21;2.17;;;1.17;;
73557;SDS011;61829;53.286;10.434;2022-08-30T13:41:49;2.50;;;1.00;;
73557;SDS011;61829;53.286;10.434;2022-08-30T13:44:15;2.70;;;1.13;;
73557;SDS011;61829;53.286;10.434;2022-08-30T13:46:42;2.63;;;1.00;;
73557;SDS011;61829;53.286;10.434;2022-08-30T13:49:14;1.92;;;1.00;;
73557;SDS011;61829;53.286;10.434;2022-08-30T13:51:46;5.13;;;1.02;;
73557;SDS011;61829;53.286;10.434;2022-08-30T13:54:18;2.20;;;1.00;;
73557;SDS011;61829;53.286;10.434;2022-08-30T13:56:49;3.95;;;1.08;;
73557;SDS011;61829;53.286;10.434;2022-08-30T13:59:17;1.65;;;1.00;;
73557;SDS011;61829;53.286;10.434;2022-08-30T14:01:45;2.53;;;1.00;;
73557;SDS011;61829;53.286;10.434;2022-08-30T14:04:13;2.63;;;1.10;;
73557;SDS011;61829;53.286;10.434;2022-08-30T14:06:39;1.85;;;1.10;;
73557;SDS011;61829;53.286;10.434;2022-08-30T14:09:06;2.50;;;1.10;;
73557;SDS011;61829;53.286;10.434;2022-08-30T14:11:33;1.73;;;1.02;;
73557;SDS011;61829;53.286;10.434;2022-08-30T14:13:59;1.90;;;1.00;;
73557;SDS011;61829;53.286;10.434;2022-08-30T14:16:27;2.33;;;1.10;;
73557;SDS011;61829;53.286;10.434;2022-08-30T14:18:54;1.35;;;0.93;;
73557;SDS011;61829;53.286;10.434;2022-08-30T14:21:20;2.60;;;0.98;;
73557;SDS011;61829;53.286;10.434;2022-08-30T14:23:48;1.95;;;1.05;;
73557;SDS011;61829;53.286;10.434;2022-08-30T14:26:16;2.13;;;1.08;;
73557;SDS011;61829;53.286;10.434;2022-08-30T14:28:45;2.72;;;1.20;;
73557;SDS011;61829;53.286;10.434;2022-08-30T14:31:23;3.88;;;1.00;;
73557;SDS011;61829;53.286;10.434;2022-08-30T14:33:49;2.78;;;1.02;;
73557;SDS011;61829;53.286;10.434;2022-08-30T14:36:16;2.72;;;1.10;;
73557;SDS011;61829;53.286;10.434;2022-08-30T14:38:43;2.17;;;1.00;;
73557;SDS011;61829;53.286;10.434;2022-08-30T14:41:09;2.40;;;1.13;;
73557;SDS011;61829;53.286;10.434;2022-08-30T14:46:05;2.35;;;1.10;;
73557;SDS011;61829;53.286;10.434;2022-08-30T14:48:31;1.30;;;0.90;;
73557;SDS011;61829;53.286;10.434;2022-08-30T14:50:58;1.02;;;0.90;;
73557;SDS011;61829;53.286;10.434;2022-08-30T14:53:24;2.20;;;1.20;;
73557;SDS011;61829;53.286;10.434;2022-08-30T14:55:50;1.30;;;0.90;;
73557;SDS011;61829;53.286;10.434;2022-08-30T14:58:17;2.53;;;1.08;;
73557;SDS011;61829;53.286;10.434;2022-08-30T15:00:50;2.78;;;1.10;;
73557;SDS011;61829;53.286;10.434;2022-08-30T15:03:17;2.97;;;1.02;;
73557;SDS011;61829;53.286;10.434;2022-08-30T15:05:48;3.20;;;1.20;;
73557;SDS011;61829;53.286;10.434;2022-08-30T15:08:15;1.95;;;0.93;;
73557;SDS011;61829;53.286;10.434;2022-08-30T15:10:41;2.13;;;1.10;;
73557;SDS011;61829;53.286;10.434;2022-08-30T15:13:08;3.28;;;1.23;;
73557;SDS011;61829;53.286;10.434;2022-08-30T15:15:40;2.80;;;1.30;;
73557;SDS011;61829;53.286;10.434;2022-08-30T15:18:21;2.08;;;1.10;;
73557;SDS011;61829;53.286;10.434;2022-08-30T15:20:48;1.50;;;0.90;;
73557;SDS011;61829;53.286;10.434;2022-08-30T15:23:15;2.17;;;1.00;;
73557;SDS011;61829;53.286;10.434;2022-08-30T15:28:08;2.58;;;0.95;;
73557;SDS011;61829;53.286;10.434;2022-08-30T15:30:34;2.50;;;1.00;;
73557;SDS011;61829;53.286;10.434;2022-08-30T15:33:00;2.50;;;1.00;;
73557;SDS011;61829;53.286;10.434;2022-08-30T15:35:27;2.40;;;1.10;;
73557;SDS011;61829;53.286;10.434;2022-08-30T15:37:53;1.80;;;0.80;;
73557;SDS011;61829;53.286;10.434;2022-08-30T15:40:19;1.77;;;0.90;;
73557;SDS011;61829;53.286;10.434;2022-08-30T15:42:45;2.55;;;0.90;;
73557;SDS011;61829;53.286;10.434;2022-08-30T15:45:12;2.70;;;1.00;;
73557;SDS011;61829;53.286;10.434;2022-08-30T15:47:38;1.65;;;0.95;;
73557;SDS011;61829;53.286;10.434;2022-08-30T15:50:05;3.08;;;1.10;;
73557;SDS011;61829;53.286;10.434;2022-08-30T15:52:32;1.20;;;0.77;;
73557;SDS011;61829;53.286;10.434;2022-08-30T15:54:58;2.00;;;0.93;;
73557;SDS011;61829;53.286;10.434;2022-08-30T15:57:24;1.40;;;0.90;;
73557;SDS011;61829;53.286;10.434;2022-08-30T15:59:51;2.20;;;1.02;;
73557;SDS011;61829;53.286;10.434;2022-08-30T16:02:19;2.05;;;0.95;;
73557;SDS011;61829;53.286;10.434;2022-08-30T16:07:12;1.88;;;0.90;;
73557;SDS011;61829;53.286;10.434;2022-08-30T16:09:38;2.83;;;0.90;;
73557;SDS011;61829;53.286;10.434;2022-08-30T16:12:05;1.30;;;0.90;;
73557;SDS011;61829;53.286;10.434;2022-08-30T16:14:32;3.15;;;1.08;;
73557;SDS011;61829;53.286;10.434;2022-08-30T16:16:59;3.20;;;0.93;;
73557;SDS011;61829;53.286;10.434;2022-08-30T16:19:26;1.05;;;0.85;;
73557;SDS011;61829;53.286;10.434;2022-08-30T16:21:52;2.25;;;0.90;;
73557;SDS011;61829;53.286;10.434;2022-08-30T16:24:19;1.60;;;0.90;;
73557;SDS011;61829;53.286;10.434;2022-08-30T16:26:45;2.65;;;0.90;;
73557;SDS011;61829;53.286;10.434;2022-08-30T16:29:11;2.13;;;0.85;;
73557;SDS011;61829;53.286;10.434;2022-08-30T16:31:38;2.05;;;0.90;;
73557;SDS011;61829;53.286;10.434;2022-08-30T16:34:05;0.65;;;0.63;;
73557;SDS011;61829;53.286;10.434;2022-08-30T16:36:32;1.98;;;1.00;;
73557;SDS011;61829;53.286;10.434;2022-08-30T16:39:01;2.67;;;0.90;;
73557;SDS011;61829;53.286;10.434;2022-08-30T16:41:29;1.35;;;0.90;;
73557;SDS011;61829;53.286;10.434;2022-08-30T16:43:55;1.88;;;1.00;;
73557;SDS011;61829;53.286;10.434;2022-08-30T16:46:22;1.42;;;0.80;;
73557;SDS011;61829;53.286;10.434;2022-08-30T16:48:50;2.15;;;0.95;;
73557;SDS011;61829;53.286;10.434;2022-08-30T16:51:18;4.05;;;0.90;;
73557;SDS011;61829;53.286;10.434;2022-08-30T16:53:46;1.08;;;0.90;;
73557;SDS011;61829;53.286;10.434;2022-08-30T16:56:17;1.80;;;0.75;;
73557;SDS011;61829;53.286;10.434;2022-08-30T17:01:13;0.77;;;0.77;;
73557;SDS011;61829;53.286;10.434;2022-08-30T17:03:40;2.28;;;0.80;;
73557;SDS011;61829;53.286;10.434;2022-08-30T17:06:07;2.00;;;0.70;;
73557;SDS011;61829;53.286;10.434;2022-08-30T17:10:59;1.80;;;0.63;;
73557;SDS011;61829;53.286;10.434;2022-08-30T17:13:26;2.10;;;0.80;;
73557;SDS011;61829;53.286;10.434;2022-08-30T17:15:52;0.80;;;0.70;;
73557;SDS011;61829;53.286;10.434;2022-08-30T17:18:18;1.60;;;0.85;;